createdAt,value
2017-07-28T00:00:15.216Z,84.87
2017-07-28T00:01:11.872Z,84.55
2017-07-28T00:02:08.255Z,84.30
2017-07-28T00:03:04.615Z,84.06
2017-07-28T00:04:00.903Z,83.85
2017-07-28T00:04:57.216Z,83.67
2017-07-28T00:05:53.732Z,83.51
2017-07-28T00:06:50.898Z,83.39
2017-07-28T00:07:48.118Z,83.24
2017-07-28T00:08:44.543Z,83.14
2017-07-28T00:09:40.824Z,83.03
2017-07-28T00:10:38.084Z,82.94
2017-07-28T00:11:34.415Z,82.89
2017-07-28T00:12:31.639Z,82.80
2017-07-28T00:13:28.259Z,82.72
2017-07-28T00:14:24.676Z,82.60
2017-07-28T00:15:21.018Z,82.53
2017-07-28T00:16:17.296Z,82.43
2017-07-28T00:17:14.519Z,82.34
2017-07-28T00:18:10.923Z,82.25
2017-07-28T00:19:07.375Z,82.18
2017-07-28T00:20:03.794Z,82.10
2017-07-28T00:21:00.116Z,82.06
2017-07-28T00:21:57.455Z,81.96
2017-07-28T00:22:54.779Z,81.91
2017-07-28T00:23:52.575Z,81.85
2017-07-28T00:24:49.027Z,81.78
2017-07-28T00:25:46.616Z,81.74
2017-07-28T00:26:43.977Z,81.70
2017-07-28T00:27:44.888Z,81.67
2017-07-28T00:37:52.731Z,81.47
2017-07-28T00:38:49.163Z,81.55
2017-07-28T00:39:45.506Z,81.59
2017-07-28T00:40:41.827Z,81.61
2017-07-28T00:41:38.147Z,81.68
2017-07-28T00:42:34.485Z,81.67
2017-07-28T00:43:31.738Z,81.67
2017-07-28T00:44:28.060Z,81.65
2017-07-28T00:45:25.219Z,81.63
2017-07-28T00:46:22.492Z,81.60
2017-07-28T00:47:19.916Z,81.59
2017-07-28T00:48:16.419Z,81.57
2017-07-28T00:49:12.723Z,81.57
2017-07-28T00:50:09.096Z,81.60
2017-07-28T00:51:07.415Z,81.61
2017-07-28T00:52:03.756Z,81.64
2017-07-28T00:53:00.040Z,81.63
2017-07-28T01:14:58.130Z,81.67
2017-07-28T01:15:54.427Z,81.88
2017-07-28T01:16:50.840Z,81.94
2017-07-28T01:17:47.327Z,81.96
2017-07-28T01:18:43.599Z,82.01
2017-07-28T01:19:41.116Z,82.05
2017-07-28T01:20:37.683Z,82.06
2017-07-28T01:21:33.984Z,82.14
2017-07-28T01:22:30.366Z,82.02
2017-07-28T01:23:40.778Z,82.07
2017-07-28T01:24:37.087Z,82.09
2017-07-28T01:25:33.827Z,82.10
2017-07-28T01:26:30.279Z,82.15
2017-07-28T01:27:26.628Z,82.13
2017-07-28T01:28:23.052Z,82.12
2017-07-28T01:29:19.416Z,82.16
2017-07-28T01:30:15.787Z,82.23
2017-07-28T01:31:12.120Z,82.21
2017-07-28T01:32:08.731Z,82.22
2017-07-28T01:33:05.051Z,82.24
2017-07-28T01:34:03.476Z,82.24
2017-07-28T01:34:59.851Z,82.27
2017-07-28T01:35:56.174Z,82.30
2017-07-28T01:36:52.466Z,82.27
2017-07-28T01:37:48.899Z,82.31
2017-07-28T01:38:46.226Z,82.38
2017-07-28T01:39:42.541Z,82.39
2017-07-28T01:40:38.902Z,82.47
2017-07-28T01:41:40.263Z,82.52
2017-07-28T01:46:06.784Z,82.53
2017-07-28T01:47:04.046Z,82.63
2017-07-28T01:48:00.512Z,82.63
2017-07-28T01:48:57.900Z,82.69
2017-07-28T01:49:54.468Z,82.71
2017-07-28T01:50:52.849Z,82.74
2017-07-28T01:51:50.284Z,82.78
2017-07-28T01:52:47.756Z,82.78
2017-07-28T01:53:44.336Z,82.83
2017-07-28T01:54:41.734Z,82.85
2017-07-28T01:55:38.042Z,82.84
2017-07-28T01:56:34.486Z,82.86
2017-07-28T01:57:31.663Z,82.91
2017-07-28T01:58:28.038Z,82.91
2017-07-28T01:59:24.487Z,82.92
2017-07-28T02:00:21.047Z,82.94
2017-07-28T02:01:17.468Z,82.96
2017-07-28T02:02:14.148Z,82.94
2017-07-28T02:03:10.443Z,82.98
2017-07-28T02:04:06.795Z,83.01
2017-07-28T02:05:03.115Z,82.99
2017-07-28T02:07:10.415Z,83.09
2017-07-28T02:08:07.731Z,83.08
2017-07-28T02:09:05.058Z,83.07
2017-07-28T02:10:01.416Z,83.08
2017-07-28T02:10:58.645Z,83.11
2017-07-28T02:11:59.129Z,83.13
2017-07-28T02:12:56.579Z,83.11
2017-07-28T02:13:54.191Z,83.09
2017-07-28T02:14:50.607Z,83.08
2017-07-28T02:17:03.379Z,83.02
2017-07-28T02:18:00.748Z,83.00
2017-07-28T02:18:57.163Z,83.02
2017-07-28T02:21:11.507Z,83.04
2017-07-28T02:22:12.041Z,83.05
2017-07-28T02:23:11.271Z,83.08
2017-07-28T02:24:09.743Z,83.06
2017-07-28T02:25:06.182Z,83.03
2017-07-28T02:27:13.451Z,83.04
2017-07-28T02:28:10.821Z,83.02
2017-07-28T02:29:09.142Z,82.99
2017-07-28T02:30:08.702Z,82.99
2017-07-28T02:31:06.627Z,82.97
2017-07-28T02:32:03.952Z,82.96
2017-07-28T02:33:00.426Z,82.94
2017-07-28T02:33:57.955Z,82.92
2017-07-28T02:34:54.375Z,82.90
2017-07-28T02:35:56.792Z,82.89
2017-07-28T02:36:53.265Z,82.89
2017-07-28T02:37:51.591Z,82.88
2017-07-28T02:38:48.016Z,82.92
2017-07-28T02:39:45.404Z,82.84
2017-07-28T02:40:42.235Z,82.86
2017-07-28T02:41:38.584Z,82.86
2017-07-28T02:42:35.143Z,82.82
2017-07-28T02:43:31.888Z,82.83
2017-07-28T02:44:28.325Z,82.80
2017-07-28T02:45:26.299Z,82.79
2017-07-28T02:46:27.424Z,82.78
2017-07-28T02:47:24.728Z,82.79
2017-07-28T02:48:21.316Z,82.81
2017-07-28T02:49:18.039Z,82.81
2017-07-28T02:50:14.712Z,82.79
2017-07-28T02:51:11.044Z,82.80
2017-07-28T02:52:07.428Z,82.79
2017-07-28T02:53:05.600Z,82.74
2017-07-28T02:54:03.972Z,82.78
2017-07-28T02:55:00.583Z,82.75
2017-07-28T02:55:58.917Z,82.76
2017-07-28T02:56:55.703Z,82.86
2017-07-28T02:57:53.540Z,82.93
2017-07-28T02:58:50.899Z,82.96
2017-07-28T02:59:48.141Z,82.94
2017-07-28T03:00:46.434Z,82.91
2017-07-28T03:01:43.368Z,82.95
2017-07-28T03:07:20.356Z,83.03
2017-07-28T03:08:17.348Z,83.04
2017-07-28T03:09:18.590Z,83.03
2017-07-28T03:10:22.863Z,83.06
2017-07-28T03:11:25.464Z,83.10
2017-07-28T03:12:22.555Z,83.10
2017-07-28T03:13:21.931Z,83.09
2017-07-28T03:14:21.505Z,83.08
2017-07-28T03:22:26.359Z,83.07
2017-07-28T03:23:30.117Z,83.04
2017-07-28T03:25:41.949Z,83.05
2017-07-28T03:26:38.774Z,83.01
2017-07-28T03:27:39.630Z,83.06
2017-07-28T03:28:42.179Z,83.06
2017-07-28T03:29:39.631Z,83.10
2017-07-28T03:35:44.596Z,83.12
2017-07-28T03:38:00.163Z,83.11
2017-07-28T03:40:35.974Z,83.13
2017-07-28T03:50:24.264Z,83.13
2017-07-28T03:58:40.936Z,83.17
2017-07-28T04:09:43.834Z,84.17
2017-07-28T04:11:05.704Z,84.33
2017-07-28T04:50:39.502Z,86.59
2017-07-28T04:51:49.199Z,86.70
2017-07-28T04:52:51.160Z,86.78
2017-07-28T05:01:18.652Z,87.74
2017-07-28T05:02:21.592Z,87.82
2017-07-28T05:10:59.801Z,88.05
2017-07-28T05:11:58.168Z,88.18
2017-07-28T05:14:11.520Z,88.20
2017-07-28T05:27:11.152Z,88.32
2017-07-28T05:37:03.851Z,88.17
2017-07-28T05:40:42.263Z,88.26
2017-07-28T05:50:25.703Z,88.32
2017-07-28T05:56:38.474Z,88.24
2017-07-28T06:03:56.865Z,88.19
2017-07-28T06:04:58.660Z,88.22
2017-07-28T06:13:37.750Z,88.28
2017-07-28T06:14:35.611Z,88.25
2017-07-28T06:15:38.471Z,88.19
2017-07-28T06:19:03.840Z,88.15
2017-07-28T06:26:25.587Z,88.21
2017-07-28T06:31:14.116Z,87.98
2017-07-28T06:44:42.276Z,87.20
2017-07-28T06:48:06.899Z,87.12
2017-07-28T06:49:05.492Z,87.09
2017-07-28T06:51:27.121Z,87.11
2017-07-28T06:52:23.939Z,87.14
2017-07-28T06:53:26.260Z,87.18
2017-07-28T06:55:34.065Z,87.06
2017-07-28T06:56:31.609Z,86.96
2017-07-28T06:57:28.310Z,86.88
2017-07-28T06:58:25.333Z,86.79
2017-07-28T07:00:42.298Z,86.59
2017-07-28T07:01:39.270Z,86.49
2017-07-28T07:02:36.023Z,86.44
2017-07-28T07:03:32.978Z,86.37
2017-07-28T07:04:31.399Z,86.34
2017-07-28T07:05:29.865Z,86.26
2017-07-28T07:06:27.291Z,86.11
2017-07-28T07:07:23.572Z,85.98
2017-07-28T07:08:19.834Z,85.90
2017-07-28T07:09:16.087Z,85.81
2017-07-28T07:10:12.329Z,85.74
2017-07-28T07:11:08.590Z,85.69
2017-07-28T07:12:04.888Z,85.65
2017-07-28T07:13:01.150Z,85.59
2017-07-28T07:13:57.405Z,85.52
2017-07-28T07:14:53.650Z,85.41
2017-07-28T07:15:49.889Z,85.34
2017-07-28T07:16:46.127Z,85.28
2017-07-28T07:17:42.378Z,85.19
2017-07-28T07:18:38.639Z,85.11
2017-07-28T07:19:34.881Z,85.07
2017-07-28T07:20:31.134Z,85.06
2017-07-28T07:21:27.392Z,85.01
2017-07-28T07:22:23.639Z,84.96
2017-07-28T07:23:19.894Z,84.90
2017-07-28T07:24:16.151Z,84.66
2017-07-28T07:25:12.408Z,84.51
2017-07-28T07:27:12.943Z,84.17
2017-07-28T07:28:09.351Z,84.02
2017-07-28T07:29:05.623Z,83.99
2017-07-28T07:30:01.866Z,83.87
2017-07-28T07:30:58.114Z,83.76
2017-07-28T07:31:54.370Z,83.65
2017-07-28T07:32:50.622Z,83.52
2017-07-28T07:33:46.886Z,83.36
2017-07-28T07:34:44.040Z,83.24
2017-07-28T07:35:40.279Z,83.25
2017-07-28T07:36:36.538Z,83.23
2017-07-28T07:37:32.786Z,83.15
2017-07-28T07:38:29.066Z,83.07
2017-07-28T07:39:25.357Z,82.99
2017-07-28T07:40:21.589Z,83.12
2017-07-28T07:41:17.835Z,83.04
2017-07-28T07:42:14.079Z,82.87
2017-07-28T07:43:10.318Z,82.73
2017-07-28T07:44:06.571Z,82.73
2017-07-28T07:45:02.832Z,82.71
2017-07-28T07:45:59.087Z,82.71
2017-07-28T07:46:55.329Z,82.79
2017-07-28T07:47:51.584Z,82.71
2017-07-28T07:48:47.845Z,82.70
2017-07-28T07:49:44.081Z,82.49
2017-07-28T07:50:40.340Z,82.23
2017-07-28T07:51:36.590Z,82.17
2017-07-28T07:52:32.835Z,82.12
2017-07-28T07:53:29.099Z,82.20
2017-07-28T07:54:25.378Z,82.46
2017-07-28T07:55:21.642Z,82.43
2017-07-28T07:56:17.917Z,82.22
2017-07-28T07:57:14.522Z,81.87
2017-07-28T07:58:10.759Z,81.58
2017-07-28T07:59:07.020Z,81.47
2017-07-28T08:00:03.271Z,81.41
2017-07-28T08:00:59.514Z,81.41
2017-07-28T08:01:55.754Z,81.46
2017-07-28T08:02:52.006Z,81.47
2017-07-28T08:03:48.279Z,81.47
2017-07-28T08:04:44.557Z,81.51
2017-07-28T08:05:40.808Z,81.48
2017-07-28T08:06:37.050Z,81.34
2017-07-28T08:07:33.305Z,81.11
2017-07-28T08:08:29.546Z,80.69
2017-07-28T08:09:25.807Z,80.49
2017-07-28T08:10:22.059Z,80.23
2017-07-28T08:11:18.302Z,79.88
2017-07-28T08:12:14.542Z,79.66
2017-07-28T08:13:10.797Z,79.28
2017-07-28T08:14:07.051Z,78.44
2017-07-28T08:15:03.317Z,78.45
2017-07-28T08:15:59.558Z,78.42
2017-07-28T08:16:55.809Z,78.42
2017-07-28T08:17:52.047Z,78.27
2017-07-28T08:18:48.291Z,78.11
2017-07-28T08:19:44.567Z,77.91
2017-07-28T08:20:40.810Z,77.36
2017-07-28T08:21:37.079Z,77.07
2017-07-28T08:22:33.322Z,76.78
2017-07-28T08:23:29.554Z,76.49
2017-07-28T08:24:25.794Z,75.93
2017-07-28T08:25:22.058Z,75.84
2017-07-28T08:26:18.286Z,75.74
2017-07-28T08:27:14.531Z,75.70
2017-07-28T08:28:10.778Z,75.47
2017-07-28T08:29:07.014Z,75.49
2017-07-28T08:30:03.284Z,75.48
2017-07-28T08:30:59.526Z,75.36
2017-07-28T08:31:55.763Z,75.18
2017-07-28T08:32:52.002Z,75.21
2017-07-28T08:33:48.234Z,75.33
2017-07-28T08:34:44.490Z,75.32
2017-07-28T08:35:40.741Z,75.05
2017-07-28T08:36:36.987Z,74.86
2017-07-28T08:37:33.230Z,74.78
2017-07-28T08:38:29.470Z,74.81
2017-07-28T08:39:25.938Z,74.89
2017-07-28T08:40:22.214Z,74.94
2017-07-28T08:41:18.459Z,74.75
2017-07-28T08:42:14.694Z,74.85
2017-07-28T08:43:10.923Z,74.78
2017-07-28T08:44:08.129Z,74.63
2017-07-28T08:45:04.371Z,74.70
2017-07-28T08:46:00.643Z,74.50
2017-07-28T08:46:56.885Z,74.00
2017-07-28T08:47:53.126Z,73.68
2017-07-28T08:48:49.358Z,73.33
2017-07-28T08:49:45.599Z,73.29
2017-07-28T08:50:41.862Z,73.38
2017-07-28T08:51:38.101Z,72.95
2017-07-28T08:52:34.330Z,72.81
2017-07-28T08:53:30.570Z,72.42
2017-07-28T08:54:26.814Z,72.03
2017-07-28T08:55:23.062Z,71.62
2017-07-28T08:56:19.322Z,71.96
2017-07-28T08:57:15.550Z,71.85
2017-07-28T08:58:11.782Z,72.01
2017-07-28T08:59:08.019Z,72.18
2017-07-28T09:00:04.272Z,72.22
2017-07-28T09:01:00.527Z,72.02
2017-07-28T09:01:56.776Z,72.01
2017-07-28T09:02:53.024Z,71.83
2017-07-28T09:03:50.165Z,71.79
2017-07-28T09:04:46.408Z,71.56
2017-07-28T09:05:42.638Z,71.62
2017-07-28T09:06:38.908Z,71.90
2017-07-28T09:07:35.163Z,72.04
2017-07-28T09:08:31.407Z,72.05
2017-07-28T09:09:27.662Z,72.14
2017-07-28T09:10:23.907Z,72.19
2017-07-28T09:11:20.157Z,72.06
2017-07-28T09:12:16.409Z,71.91
2017-07-28T09:13:12.658Z,72.00
2017-07-28T09:14:08.984Z,72.15
2017-07-28T09:15:05.200Z,72.26
2017-07-28T09:16:03.897Z,72.33
2017-07-28T09:17:00.174Z,71.90
2017-07-28T09:17:56.411Z,71.29
2017-07-28T09:18:52.653Z,70.97
2017-07-28T09:19:48.906Z,70.48
2017-07-28T09:20:45.146Z,70.49
2017-07-28T09:21:41.386Z,70.31
2017-07-28T09:22:37.619Z,70.49
2017-07-28T09:23:33.859Z,70.43
2017-07-28T09:24:30.133Z,70.20
2017-07-28T09:25:26.375Z,70.18
2017-07-28T09:26:22.645Z,69.81
2017-07-28T09:27:18.882Z,69.72
2017-07-28T09:28:15.130Z,70.00
2017-07-28T09:29:11.374Z,70.39
2017-07-28T09:30:07.630Z,70.42
2017-07-28T09:31:03.863Z,70.23
2017-07-28T09:32:00.861Z,70.30
2017-07-28T09:32:57.113Z,69.83
2017-07-28T09:33:53.358Z,69.71
2017-07-28T09:34:49.594Z,69.48
2017-07-28T09:35:45.822Z,69.06
2017-07-28T09:36:42.063Z,68.65
2017-07-28T09:37:38.376Z,68.54
2017-07-28T09:38:34.630Z,68.66
2017-07-28T09:39:30.871Z,68.16
2017-07-28T09:40:27.112Z,68.23
2017-07-28T09:41:23.351Z,68.24
2017-07-28T09:42:19.607Z,68.04
2017-07-28T09:43:15.842Z,67.37
2017-07-28T09:44:12.083Z,66.52
2017-07-28T09:45:08.335Z,66.60
2017-07-28T09:46:04.573Z,66.79
2017-07-28T09:47:00.818Z,66.57
2017-07-28T09:47:57.086Z,66.34
2017-07-28T09:48:53.359Z,65.52
2017-07-28T09:49:49.625Z,65.54
2017-07-28T09:50:45.890Z,65.56
2017-07-28T09:51:42.139Z,65.37
2017-07-28T09:52:38.393Z,65.41
2017-07-28T09:53:34.630Z,65.02
2017-07-28T09:54:30.871Z,64.52
2017-07-28T09:55:27.105Z,64.75
2017-07-28T09:56:34.814Z,64.36
2017-07-28T09:57:32.640Z,64.27
2017-07-28T09:58:29.408Z,64.39
2017-07-28T09:59:30.723Z,63.89
2017-07-28T10:00:27.634Z,64.14
2017-07-28T10:01:24.195Z,63.95
2017-07-28T10:02:20.451Z,63.52
2017-07-28T10:03:16.710Z,63.24
2017-07-28T10:04:12.934Z,63.58
2017-07-28T10:05:09.183Z,63.61
2017-07-28T10:06:05.432Z,63.84
2017-07-28T10:07:01.683Z,63.87
2017-07-28T10:07:57.946Z,63.41
2017-07-28T10:08:54.195Z,63.53
2017-07-28T10:09:50.439Z,63.83
2017-07-28T10:10:46.679Z,63.36
2017-07-28T10:11:42.930Z,63.01
2017-07-28T10:12:39.174Z,63.16
2017-07-28T10:13:35.435Z,63.29
2017-07-28T10:14:31.678Z,63.37
2017-07-28T10:15:27.926Z,63.20
2017-07-28T10:16:24.167Z,62.53
2017-07-28T10:17:20.415Z,62.31
2017-07-28T10:18:17.457Z,62.49
2017-07-28T10:22:33.911Z,62.24
2017-07-28T10:23:30.173Z,62.13
2017-07-28T10:24:26.510Z,61.78
2017-07-28T10:25:22.747Z,61.86
2017-07-28T10:26:18.989Z,61.95
2017-07-28T10:27:15.227Z,61.86
2017-07-28T10:28:11.465Z,61.86
2017-07-28T10:29:07.705Z,62.11
2017-07-28T10:30:03.940Z,62.04
2017-07-28T10:31:00.190Z,62.19
2017-07-28T10:31:56.427Z,62.15
2017-07-28T10:32:52.657Z,62.20
2017-07-28T10:33:48.919Z,62.25
2017-07-28T10:34:45.158Z,62.12
2017-07-28T10:35:41.394Z,61.83
2017-07-28T10:36:37.647Z,61.56
2017-07-28T10:37:33.883Z,61.53
2017-07-28T10:38:30.149Z,61.34
2017-07-28T10:39:26.412Z,61.17
2017-07-28T10:40:22.653Z,61.10
2017-07-28T10:41:18.898Z,61.06
2017-07-28T10:42:15.141Z,61.30
2017-07-28T10:43:11.379Z,61.25
2017-07-28T10:44:07.638Z,61.33
2017-07-28T10:45:03.894Z,61.24
2017-07-28T10:46:00.135Z,60.87
2017-07-28T10:46:56.372Z,61.11
2017-07-28T10:47:52.610Z,61.27
2017-07-28T10:48:48.850Z,61.06
2017-07-28T10:49:45.114Z,61.24
2017-07-28T10:50:41.351Z,61.53
2017-07-28T10:51:37.582Z,61.37
2017-07-28T10:52:33.823Z,60.91
2017-07-28T10:53:30.071Z,61.24
2017-07-28T10:54:26.338Z,61.44
2017-07-28T10:55:22.599Z,61.41
2017-07-28T10:56:18.842Z,61.30
2017-07-28T10:57:15.078Z,61.46
2017-07-28T10:58:11.314Z,61.64
2017-07-28T10:59:07.550Z,61.58
2017-07-28T11:00:03.814Z,61.51
2017-07-28T11:01:00.055Z,61.12
2017-07-28T11:01:56.306Z,61.10
2017-07-28T11:02:52.563Z,60.76
2017-07-28T11:03:49.275Z,60.79
2017-07-28T11:04:45.551Z,60.77
2017-07-28T11:05:41.798Z,60.65
2017-07-28T11:06:38.042Z,60.95
2017-07-28T11:07:34.309Z,60.98
2017-07-28T11:08:30.558Z,61.16
2017-07-28T11:09:26.807Z,61.34
2017-07-28T11:10:23.066Z,61.21
2017-07-28T11:11:19.310Z,61.00
2017-07-28T11:12:15.560Z,60.88
2017-07-28T11:13:11.799Z,60.61
2017-07-28T11:14:08.053Z,60.78
2017-07-28T11:15:04.320Z,60.91
2017-07-28T11:16:00.562Z,61.09
2017-07-28T11:16:56.803Z,61.20
2017-07-28T11:17:53.054Z,61.76
2017-07-28T11:18:49.331Z,62.11
2017-07-28T11:19:45.598Z,62.08
2017-07-28T11:20:41.872Z,62.07
2017-07-28T11:21:38.130Z,61.89
2017-07-28T11:22:34.387Z,61.44
2017-07-28T11:23:30.633Z,60.69
2017-07-28T11:24:26.889Z,60.52
2017-07-28T11:25:23.202Z,60.27
2017-07-28T11:26:19.439Z,59.85
2017-07-28T11:27:15.683Z,59.03
2017-07-28T11:28:11.925Z,58.29
2017-07-28T11:29:08.176Z,57.60
2017-07-28T11:30:04.422Z,56.96
2017-07-28T11:31:00.695Z,56.72
2017-07-28T11:31:56.948Z,56.33
2017-07-28T11:32:53.186Z,55.88
2017-07-28T11:33:49.430Z,55.64
2017-07-28T11:34:45.691Z,55.50
2017-07-28T11:35:42.024Z,55.46
2017-07-28T11:36:38.268Z,55.44
2017-07-28T11:37:34.522Z,55.26
2017-07-28T11:38:30.763Z,55.41
2017-07-28T11:39:27.015Z,55.88
2017-07-28T11:40:23.304Z,55.64
2017-07-28T11:41:19.563Z,55.64
2017-07-28T11:42:15.865Z,55.39
2017-07-28T11:43:12.190Z,55.22
2017-07-28T11:44:08.458Z,54.75
2017-07-28T11:45:04.733Z,54.27
2017-07-28T11:46:00.974Z,54.16
2017-07-28T11:46:57.215Z,54.23
2017-07-28T11:47:53.468Z,54.13
2017-07-28T11:48:49.723Z,54.21
2017-07-28T11:49:46.026Z,54.46
2017-07-28T11:50:42.294Z,54.47
2017-07-28T11:51:38.558Z,54.62
2017-07-28T11:52:34.803Z,54.19
2017-07-28T11:53:31.054Z,53.88
2017-07-28T11:54:27.306Z,54.23
2017-07-28T11:55:23.538Z,54.23
2017-07-28T11:56:19.804Z,54.33
2017-07-28T11:57:16.054Z,53.93
2017-07-28T11:58:12.299Z,53.59
2017-07-28T11:59:08.544Z,53.66
2017-07-28T12:00:04.798Z,53.61
2017-07-28T12:01:01.070Z,53.85
2017-07-28T12:01:57.322Z,54.04
2017-07-28T12:02:53.567Z,53.91
2017-07-28T12:03:49.799Z,54.19
2017-07-28T12:04:46.049Z,54.29
2017-07-28T12:05:42.351Z,53.95
2017-07-28T12:06:38.627Z,53.93
2017-07-28T12:07:34.928Z,53.30
2017-07-28T12:08:31.226Z,53.45
2017-07-28T12:09:27.471Z,53.36
2017-07-28T12:10:23.759Z,53.31
2017-07-28T12:11:20.089Z,53.08
2017-07-28T12:12:16.466Z,52.89
2017-07-28T12:13:12.986Z,52.63
2017-07-28T12:14:09.286Z,52.72
2017-07-28T12:15:05.587Z,53.12
2017-07-28T12:16:01.852Z,53.48
2017-07-28T12:16:58.126Z,53.36
2017-07-28T12:17:54.361Z,53.53
2017-07-28T12:18:50.619Z,53.93
2017-07-28T12:19:46.874Z,53.81
2017-07-28T12:20:43.123Z,53.48
2017-07-28T12:21:39.399Z,53.44
2017-07-28T12:22:35.634Z,52.86
2017-07-28T12:23:31.890Z,52.40
2017-07-28T12:24:28.135Z,51.96
2017-07-28T12:25:24.375Z,51.74
2017-07-28T12:26:20.614Z,51.41
2017-07-28T12:27:16.888Z,51.02
2017-07-28T12:28:13.191Z,51.24
2017-07-28T12:29:09.453Z,51.41
2017-07-28T12:30:05.707Z,51.39
2017-07-28T12:31:01.952Z,51.37
2017-07-28T12:31:58.227Z,51.60
2017-07-28T12:32:54.493Z,51.96
2017-07-28T12:33:50.773Z,52.14
2017-07-28T12:34:47.026Z,52.08
2017-07-28T12:35:43.274Z,51.80
2017-07-28T12:36:39.519Z,51.85
2017-07-28T12:37:35.778Z,51.65
2017-07-28T12:38:32.062Z,51.70
2017-07-28T12:39:28.342Z,51.34
2017-07-28T12:40:24.671Z,51.11
2017-07-28T12:41:20.919Z,51.24
2017-07-28T12:42:17.194Z,51.38
2017-07-28T12:43:13.433Z,51.31
2017-07-28T12:44:09.666Z,51.22
2017-07-28T12:45:07.803Z,51.02
2017-07-28T12:46:04.092Z,50.26
2017-07-28T12:47:00.389Z,49.93
2017-07-28T12:47:56.667Z,50.00
2017-07-28T12:48:52.914Z,49.86
2017-07-28T12:49:49.159Z,49.62
2017-07-28T12:50:45.423Z,49.68
2017-07-28T12:51:41.683Z,49.68
2017-07-28T12:52:37.942Z,49.85
2017-07-28T12:53:34.187Z,50.05
2017-07-28T12:54:30.454Z,50.43
2017-07-28T12:55:26.698Z,50.68
2017-07-28T12:56:22.954Z,50.70
2017-07-28T12:57:19.195Z,50.23
2017-07-28T12:58:15.455Z,49.67
2017-07-28T12:59:11.698Z,49.47
2017-07-28T13:00:07.977Z,49.71
2017-07-28T13:01:04.207Z,50.08
2017-07-28T13:02:00.457Z,50.44
2017-07-28T13:02:56.723Z,50.52
2017-07-28T13:03:52.971Z,49.96
2017-07-28T13:04:49.215Z,49.65
2017-07-28T13:05:45.462Z,49.46
2017-07-28T13:06:41.751Z,49.74
2017-07-28T13:07:37.987Z,49.55
2017-07-28T13:08:34.243Z,49.79
2017-07-28T13:09:30.479Z,49.32
2017-07-28T13:10:26.715Z,49.38
2017-07-28T13:11:22.971Z,49.73
2017-07-28T13:12:19.222Z,49.93
2017-07-28T13:13:15.603Z,50.10
2017-07-28T13:14:11.847Z,50.07
2017-07-28T13:15:08.086Z,50.20
2017-07-28T13:16:04.330Z,50.06
2017-07-28T13:17:00.586Z,50.19
2017-07-28T13:17:56.852Z,50.29
2017-07-28T13:18:53.112Z,50.85
2017-07-28T13:19:49.367Z,51.57
2017-07-28T13:20:45.745Z,51.57
2017-07-28T13:21:41.987Z,51.69
2017-07-28T13:22:38.235Z,51.77
2017-07-28T13:23:34.503Z,52.08
2017-07-28T13:24:30.806Z,52.08
2017-07-28T13:25:27.085Z,51.64
2017-07-28T13:26:23.400Z,50.96
2017-07-28T13:27:19.693Z,51.23
2017-07-28T13:28:15.942Z,51.30
2017-07-28T13:29:12.204Z,51.71
2017-07-28T13:30:08.438Z,51.81
2017-07-28T13:31:04.684Z,51.73
2017-07-28T13:32:00.971Z,51.43
2017-07-28T13:32:57.222Z,50.97
2017-07-28T13:33:54.511Z,50.71
2017-07-28T13:34:50.819Z,50.76
2017-07-28T13:35:47.090Z,49.91
2017-07-28T13:36:43.390Z,49.85
2017-07-28T13:37:39.673Z,49.57
2017-07-28T13:38:36.018Z,49.36
2017-07-28T13:39:32.283Z,48.84
2017-07-28T13:40:28.573Z,48.67
2017-07-28T13:41:24.866Z,48.81
2017-07-28T13:42:21.162Z,48.86
2017-07-28T13:43:17.406Z,49.51
2017-07-28T13:44:13.733Z,49.70
2017-07-28T13:45:09.987Z,49.99
2017-07-28T13:46:06.434Z,50.01
2017-07-28T13:47:07.395Z,50.23
2017-07-28T13:48:04.638Z,50.63
2017-07-28T13:49:00.899Z,50.29
2017-07-28T13:49:57.156Z,49.60
2017-07-28T13:50:53.501Z,49.28
2017-07-28T13:51:49.838Z,49.07
2017-07-28T13:52:47.100Z,48.94
2017-07-28T13:53:43.351Z,49.14
2017-07-28T13:54:39.619Z,48.96
2017-07-28T13:55:35.867Z,48.58
2017-07-28T13:56:32.131Z,48.85
2017-07-28T13:57:28.399Z,49.10
2017-07-28T13:58:24.675Z,49.22
2017-07-28T13:59:21.123Z,48.42
2017-07-28T14:00:17.359Z,48.49
2017-07-28T14:01:13.674Z,48.47
2017-07-28T14:02:09.934Z,48.76
2017-07-28T14:03:06.162Z,48.77
2017-07-28T14:04:02.506Z,49.15
2017-07-28T14:04:58.763Z,49.03
2017-07-28T14:05:55.006Z,49.04
2017-07-28T14:06:51.533Z,49.20
2017-07-28T14:07:47.766Z,49.31
2017-07-28T14:08:44.031Z,49.41
2017-07-28T14:09:40.277Z,49.22
2017-07-28T14:10:36.683Z,49.35
2017-07-28T14:11:32.967Z,49.17
2017-07-28T14:12:29.243Z,49.62
2017-07-28T14:13:25.483Z,49.14
2017-07-28T14:14:21.721Z,48.81
2017-07-28T14:15:17.991Z,48.75
2017-07-28T14:16:14.280Z,48.65
2017-07-28T14:17:10.583Z,48.44
2017-07-28T14:18:06.834Z,48.04
2017-07-28T14:19:03.079Z,48.15
2017-07-28T14:19:59.318Z,48.29
2017-07-28T14:20:56.585Z,48.87
2017-07-28T14:21:53.755Z,49.25
2017-07-28T14:22:49.995Z,49.44
2017-07-28T14:23:46.262Z,49.52
2017-07-28T14:24:42.503Z,49.41
2017-07-28T14:25:38.766Z,49.04
2017-07-28T14:26:34.998Z,49.35
2017-07-28T14:27:31.668Z,49.58
2017-07-28T14:28:31.954Z,49.88
2017-07-28T14:29:28.195Z,50.09
2017-07-28T14:30:24.462Z,50.33
2017-07-28T14:31:20.742Z,50.48
2017-07-28T14:32:17.339Z,50.38
2017-07-28T14:33:13.579Z,50.49
2017-07-28T14:34:09.831Z,50.79
2017-07-28T14:35:06.082Z,51.12
2017-07-28T14:36:02.393Z,51.00
2017-07-28T14:36:58.683Z,49.99
2017-07-28T14:37:54.926Z,49.35
2017-07-28T14:38:52.183Z,48.99
2017-07-28T14:39:48.435Z,49.21
2017-07-28T14:40:44.683Z,49.14
2017-07-28T14:41:40.974Z,48.95
2017-07-28T14:42:37.226Z,49.01
2017-07-28T14:43:33.474Z,49.17
2017-07-28T14:44:29.719Z,48.97
2017-07-28T14:45:25.975Z,49.34
2017-07-28T14:46:22.255Z,49.68
2017-07-28T14:47:19.103Z,50.06
2017-07-28T14:48:16.353Z,50.27
2017-07-28T14:49:12.718Z,50.30
2017-07-28T14:50:08.977Z,50.09
2017-07-28T14:51:05.306Z,49.86
2017-07-28T14:52:01.549Z,49.94
2017-07-28T14:52:57.808Z,49.79
2017-07-28T14:53:54.049Z,50.02
2017-07-28T14:54:50.289Z,50.34
2017-07-28T14:55:46.543Z,50.80
2017-07-28T14:56:42.823Z,51.17
2017-07-28T14:57:39.066Z,51.53
2017-07-28T14:58:35.322Z,51.79
2017-07-28T14:59:31.597Z,51.63
2017-07-28T15:00:27.855Z,51.50
2017-07-28T15:01:24.102Z,51.38
2017-07-28T15:02:20.358Z,51.55
2017-07-28T15:03:16.581Z,52.02
2017-07-28T15:04:12.832Z,51.53
2017-07-28T15:05:09.075Z,51.23
2017-07-28T15:06:05.334Z,51.06
2017-07-28T15:07:01.594Z,51.00
2017-07-28T15:07:57.850Z,50.58
2017-07-28T15:08:54.083Z,50.56
2017-07-28T15:09:50.449Z,51.16
2017-07-28T15:10:46.972Z,51.58
2017-07-28T15:11:43.498Z,51.47
2017-07-28T15:12:40.126Z,51.36
2017-07-28T15:14:52.966Z,51.55
2017-07-28T15:15:49.215Z,51.28
2017-07-28T15:16:45.459Z,51.53
2017-07-28T15:17:42.678Z,51.03
2017-07-28T15:18:38.927Z,50.42
2017-07-28T15:19:35.171Z,50.05
2017-07-28T15:20:33.137Z,49.91
2017-07-28T15:21:29.391Z,49.13
2017-07-28T15:22:25.666Z,48.79
2017-07-28T15:23:21.931Z,48.54
2017-07-28T15:24:18.205Z,48.45
2017-07-28T15:25:14.792Z,47.90
2017-07-28T15:26:11.038Z,47.81
2017-07-28T15:27:07.283Z,47.81
2017-07-28T15:28:05.558Z,47.73
2017-07-28T15:29:01.819Z,47.87
2017-07-28T15:29:58.083Z,47.91
2017-07-28T15:30:54.635Z,47.89
2017-07-28T15:31:50.930Z,48.08
2017-07-28T15:32:47.219Z,48.29
2017-07-28T15:33:43.489Z,48.22
2017-07-28T15:34:39.755Z,48.46
2017-07-28T15:35:36.019Z,48.30
2017-07-28T15:36:32.254Z,48.20
2017-07-28T15:37:28.514Z,48.16
2017-07-28T15:38:24.994Z,48.07
2017-07-28T15:39:21.230Z,47.96
2017-07-28T15:40:17.474Z,48.11
2017-07-28T15:41:13.762Z,48.03
2017-07-28T15:42:10.022Z,48.10
2017-07-28T15:43:06.278Z,48.30
2017-07-28T15:44:02.527Z,48.49
2017-07-28T15:44:58.770Z,48.53
2017-07-28T15:45:55.009Z,48.61
2017-07-28T15:46:51.262Z,48.58
2017-07-28T15:47:47.754Z,48.61
2017-07-28T15:48:44.022Z,48.95
2017-07-28T15:49:40.259Z,48.84
2017-07-28T15:50:36.522Z,48.95
2017-07-28T15:51:32.802Z,49.17
2017-07-28T15:52:29.046Z,49.37
2017-07-28T15:53:25.306Z,49.31
2017-07-28T15:54:21.541Z,49.13
2017-07-28T15:55:17.774Z,48.97
2017-07-28T15:56:14.031Z,48.99
2017-07-28T15:57:10.275Z,49.44
2017-07-28T15:58:06.661Z,49.64
2017-07-28T15:59:02.924Z,49.67
2017-07-28T15:59:59.195Z,49.76